Time;durP1;ratioP1;P1;durP2;ratioP2;P2;SDS_P1;SDS_P2;PMS_P1;PMS_P2;Temp;Humidity;BMP_temperature;BMP_pressure;BME280_temperature;BME280_humidity;BME280_pressure;Samples;Min_cycle;Max_cycle;Signal;HPM_P1;HPM_P2
2021/03/20 00:00:21;;;;;;;7.65;4.00;;;9.80;99.90;;;;;;5010834;28;20061;-79
2021/03/20 00:02:47;;;;;;;5.05;3.58;;;9.70;99.90;;;;;;5010782;28;20093;-78
2021/03/20 00:05:14;;;;;;;5.05;3.17;;;9.70;99.90;;;;;;5010935;28;20030;-79
2021/03/20 00:07:40;;;;;;;5.00;2.95;;;9.70;99.90;;;;;;5010679;28;20022;-78
2021/03/20 00:10:11;;;;;;;5.47;2.40;;;9.70;99.90;;;;;;5078360;28;20034;-78
2021/03/20 00:12:37;;;;;;;5.15;3.15;;;9.70;99.90;;;;;;5091945;28;20556;-78
2021/03/20 00:15:06;;;;;;;7.50;3.25;;;9.70;99.90;;;;;;5093384;28;20032;-79
2021/03/20 00:17:32;;;;;;;6.43;2.90;;;9.60;99.90;;;;;;5093344;28;20435;-78
2021/03/20 00:19:58;;;;;;;4.68;2.72;;;9.60;99.90;;;;;;5093196;28;20020;-78
2021/03/20 00:22:24;;;;;;;7.38;3.08;;;9.60;99.90;;;;;;5093478;28;20503;-78
2021/03/20 00:24:50;;;;;;;3.72;2.30;;;9.60;99.90;;;;;;5093364;28;20032;-78
2021/03/20 00:27:16;;;;;;;3.80;1.85;;;9.60;99.90;;;;;;5093175;28;20051;-79
2021/03/20 00:29:42;;;;;;;3.85;1.65;;;9.60;99.90;;;;;;5093216;28;20561;-78
2021/03/20 00:32:08;;;;;;;4.85;2.67;;;9.60;99.90;;;;;;5092976;28;20516;-78
2021/03/20 00:34:34;;;;;;;3.15;1.70;;;9.60;99.90;;;;;;5091748;28;20373;-78
2021/03/20 00:37:00;;;;;;;3.45;1.98;;;9.60;99.90;;;;;;5093168;28;20036;-77
2021/03/20 00:39:26;;;;;;;3.50;1.92;;;9.60;99.90;;;;;;5092917;28;20016;-77
2021/03/20 00:41:52;;;;;;;3.95;1.73;;;9.60;99.90;;;;;;5092965;28;20084;-79
2021/03/20 00:44:18;;;;;;;2.10;1.58;;;9.60;99.90;;;;;;5091770;28;20028;-77
2021/03/20 00:46:44;;;;;;;2.05;1.70;;;9.60;99.90;;;;;;5093103;28;20485;-77
2021/03/20 00:49:10;;;;;;;2.05;1.50;;;9.60;99.90;;;;;;5092887;28;20024;-79
2021/03/20 00:51:36;;;;;;;1.80;1.40;;;9.60;99.90;;;;;;5092838;28;20375;-82
2021/03/20 00:54:03;;;;;;;2.85;1.50;;;9.60;99.90;;;;;;5093490;28;20031;-78
2021/03/20 00:56:29;;;;;;;3.97;1.83;;;9.60;99.90;;;;;;5093309;28;20395;-76
2021/03/20 00:58:55;;;;;;;3.13;1.70;;;9.60;99.90;;;;;;5092956;28;20470;-79
2021/03/20 01:01:21;;;;;;;3.90;2.38;;;9.60;99.90;;;;;;5092749;28;20077;-79
2021/03/20 01:03:49;;;;;;;2.45;1.92;;;9.60;99.90;;;;;;5091576;28;20533;-78
2021/03/20 01:06:20;;;;;;;3.58;2.38;;;9.60;99.90;;;;;;5092602;28;20058;-78
2021/03/20 01:08:47;;;;;;;3.50;2.15;;;9.60;99.90;;;;;;5092686;28;20030;-77
2021/03/20 01:11:16;;;;;;;5.93;2.58;;;9.60;99.90;;;;;;5070497;28;20054;-77
2021/03/20 01:13:43;;;;;;;5.30;1.95;;;9.60;99.90;;;;;;5010024;28;20105;-77
2021/03/20 01:16:10;;;;;;;2.17;1.42;;;9.70;99.90;;;;;;5010122;28;20030;-77
2021/03/20 01:18:36;;;;;;;3.00;1.73;;;9.70;99.90;;;;;;5009894;28;20034;-77
2021/03/20 01:21:04;;;;;;;2.78;1.98;;;9.70;99.90;;;;;;5009863;28;20475;-77
2021/03/20 01:23:30;;;;;;;3.22;2.35;;;9.70;99.90;;;;;;5077585;28;20045;-77
2021/03/20 01:25:56;;;;;;;4.70;2.67;;;9.70;99.90;;;;;;5009878;28;20034;-77
2021/03/20 01:28:27;;;;;;;3.42;2.78;;;9.70;99.90;;;;;;5009576;28;20436;-78
2021/03/20 01:30:54;;;;;;;3.70;2.30;;;9.80;99.90;;;;;;5009500;28;20118;-82
2021/03/20 01:33:20;;;;;;;3.30;2.42;;;9.80;99.90;;;;;;5009824;28;20227;-78
2021/03/20 01:35:47;;;;;;;1.88;1.52;;;9.80;99.90;;;;;;5009796;28;20067;-81
2021/03/20 01:38:13;;;;;;;3.58;1.70;;;9.80;99.90;;;;;;5009467;28;20090;-76
2021/03/20 01:40:50;;;;;;;2.90;2.13;;;9.70;99.90;;;;;;5009734;28;20079;-79
2021/03/20 01:43:19;;;;;;;9.15;1.98;;;9.80;99.90;;;;;;5077298;28;20026;-79
2021/03/20 01:45:45;;;;;;;3.53;2.15;;;9.80;99.90;;;;;;5077167;28;20449;-80
2021/03/20 01:48:28;;;;;;;3.78;2.03;;;9.80;99.90;;;;;;5009428;28;20030;-78
2021/03/20 01:51:01;;;;;;;3.75;2.53;;;9.70;99.90;;;;;;5009338;28;20048;-80
2021/03/20 01:53:41;;;;;;;3.63;1.98;;;9.80;99.90;;;;;;5009543;28;20052;-78
2021/03/20 01:56:11;;;;;;;3.28;1.60;;;9.70;99.90;;;;;;5009207;28;20478;-80
2021/03/20 01:58:40;;;;;;;4.72;2.20;;;9.80;99.90;;;;;;5009222;28;20062;-82
2021/03/20 02:01:18;;;;;;;2.88;1.80;;;9.80;99.90;;;;;;5009144;28;20113;-77
2021/03/20 02:03:44;;;;;;;4.00;2.30;;;9.80;99.90;;;;;;5009381;28;20099;-79
2021/03/20 02:06:11;;;;;;;5.82;1.75;;;9.80;99.90;;;;;;5009323;28;20041;-79
2021/03/20 02:08:47;;;;;;;4.65;1.77;;;9.80;99.90;;;;;;5010561;28;20026;-79
2021/03/20 02:11:25;;;;;;;6.35;2.20;;;9.80;99.90;;;;;;5017977;28;20069;-81
2021/03/20 02:14:18;;;;;;;3.20;1.80;;;9.80;99.90;;;;;;5012775;28;20057;-79
2021/03/20 02:16:49;;;;;;;2.53;1.58;;;9.80;99.90;;;;;;5012467;28;20022;-78
2021/03/20 02:19:36;;;;;;;3.35;2.10;;;9.80;99.90;;;;;;5080521;28;20037;-76
2021/03/20 02:22:06;;;;;;;3.20;1.60;;;9.80;99.90;;;;;;5080386;28;20087;-80
2021/03/20 02:24:41;;;;;;;2.95;1.60;;;9.80;99.90;;;;;;5080286;28;20087;-80
2021/03/20 02:27:24;;;;;;;3.45;1.60;;;9.70;99.90;;;;;;5012173;28;20026;-76
2021/03/20 02:29:53;;;;;;;;;;;9.70;99.90;;;;;;5012742;28;20026;-77
2021/03/20 02:32:40;;;;;;;3.03;1.40;;;9.70;99.90;;;;;;5012008;28;19921;-77
2021/03/20 02:35:15;;;;;;;2.70;1.30;;;9.70;99.90;;;;;;5011971;28;20022;-77
2021/03/20 02:38:02;;;;;;;2.10;1.30;;;9.70;99.90;;;;;;5012297;28;20055;-79
2021/03/20 02:41:12;;;;;;;1.92;1.25;;;9.70;99.90;;;;;;5012249;28;20053;-78
2021/03/20 02:43:57;;;;;;;2.22;1.33;;;9.70;99.90;;;;;;5036116;28;20040;-77
2021/03/20 02:46:49;;;;;;;2.50;1.55;;;9.60;99.90;;;;;;5015002;28;20514;-79
2021/03/20 02:49:17;;;;;;;2.65;1.25;;;9.60;99.90;;;;;;5079765;28;20433;-77
2021/03/20 02:52:08;;;;;;;2.63;1.52;;;9.60;99.90;;;;;;5079555;28;20483;-77
2021/03/20 02:54:46;;;;;;;2.97;1.58;;;9.60;99.90;;;;;;5079720;28;20479;-81
2021/03/20 02:57:17;;;;;;;2.70;1.95;;;9.60;99.90;;;;;;5079531;28;20028;-78
2021/03/20 02:59:53;;;;;;;3.22;1.45;;;9.60;99.90;;;;;;5011681;28;20034;-79
2021/03/20 03:02:21;;;;;;;3.00;1.35;;;9.60;99.90;;;;;;5011670;28;20030;-81
2021/03/20 03:05:04;;;;;;;2.83;1.55;;;9.70;99.90;;;;;;5011699;28;20049;-77
2021/03/20 03:07:36;;;;;;;;;;;9.70;99.90;;;;;;5011807;28;20479;-77
2021/03/20 03:10:05;;;;;;;3.47;1.83;;;9.60;99.90;;;;;;5011529;28;20279;-80
2021/03/20 03:12:47;;;;;;;3.92;1.92;;;9.60;99.90;;;;;;5079219;28;20054;-76
2021/03/20 03:15:49;;;;;;;1.90;1.45;;;9.50;99.90;;;;;;5079480;28;20030;-77
2021/03/20 03:18:32;;;;;;;2.97;1.77;;;9.40;99.90;;;;;;5011473;28;20097;-78
2021/03/20 03:21:03;;;;;;;2.55;1.40;;;9.40;99.90;;;;;;5011353;28;20109;-80
2021/03/20 03:23:33;;;;;;;3.08;1.77;;;9.20;99.90;;;;;;5011349;28;20437;-79
2021/03/20 03:26:17;;;;;;;4.03;2.00;;;9.10;99.90;;;;;;5011314;28;20072;-78
2021/03/20 03:28:51;;;;;;;2.28;1.50;;;9.10;99.90;;;;;;5011701;28;20025;-77
2021/03/20 03:31:30;;;;;;;2.60;1.50;;;9.00;99.90;;;;;;5078855;28;20052;-77
2021/03/20 03:34:11;;;;;;;2.78;1.33;;;9.10;99.90;;;;;;5011258;28;20033;-77
2021/03/20 03:36:57;;;;;;;3.78;1.75;;;9.20;99.90;;;;;;5011275;28;20026;-77
2021/03/20 03:39:50;;;;;;;2.22;1.75;;;9.20;99.90;;;;;;5011232;28;20053;-78
2021/03/20 03:42:19;;;;;;;2.13;1.50;;;9.30;99.90;;;;;;5010978;28;20026;-77
2021/03/20 03:44:47;;;;;;;2.15;1.30;;;9.30;99.90;;;;;;5011036;28;20022;-77
2021/03/20 03:47:28;;;;;;;1.92;1.15;;;9.20;99.90;;;;;;5010815;28;20037;-77
2021/03/20 03:50:00;;;;;;;3.58;1.50;;;9.20;99.90;;;;;;5011091;28;20030;-77
2021/03/20 03:52:26;;;;;;;2.38;1.40;;;9.20;99.90;;;;;;5010800;28;20034;-77
2021/03/20 03:54:52;;;;;;;2.25;1.13;;;9.20;99.90;;;;;;5010989;28;20018;-78
2021/03/20 03:57:43;;;;;;;1.67;1.05;;;9.10;99.90;;;;;;5010858;28;20046;-79
2021/03/20 04:00:33;;;;;;;1.92;1.10;;;9.00;99.90;;;;;;5078587;28;20038;-76
2021/03/20 04:03:30;;;;;;;2.17;1.27;;;9.00;99.90;;;;;;5010767;28;20082;-77
2021/03/20 04:06:13;;;;;;;3.03;1.52;;;9.00;99.90;;;;;;5010715;28;20028;-76
2021/03/20 04:09:05;;;;;;;2.60;1.13;;;9.00;99.90;;;;;;5010938;28;20052;-79
2021/03/20 04:12:03;;;;;;;1.98;1.20;;;9.10;99.90;;;;;;5010089;28;20054;-77
2021/03/20 04:14:50;;;;;;;1.92;1.30;;;9.10;99.90;;;;;;5078274;28;20037;-79
2021/03/20 04:17:31;;;;;;;3.83;1.85;;;9.20;99.90;;;;;;5010373;28;20033;-77
2021/03/20 04:20:18;;;;;;;2.97;1.60;;;9.20;99.90;;;;;;5010594;28;20025;-77
2021/03/20 04:23:03;;;;;;;1.88;1.15;;;9.10;99.90;;;;;;5010614;28;20026;-77
2021/03/20 04:26:09;;;;;;;2.85;1.80;;;9.00;99.90;;;;;;5010433;28;20068;-76
2021/03/20 04:29:01;;;;;;;2.83;1.55;;;8.90;99.90;;;;;;5064372;28;20042;-80
2021/03/20 04:31:35;;;;;;;4.75;1.65;;;8.80;99.90;;;;;;5017254;28;20498;-79
2021/03/20 04:34:22;;;;;;;2.88;1.70;;;8.80;99.90;;;;;;5010225;28;20033;-77
2021/03/20 04:36:54;;;;;;;2.58;1.40;;;8.80;99.90;;;;;;5010347;28;20034;-77
2021/03/20 04:39:25;;;;;;;2.28;1.45;;;8.70;99.90;;;;;;5010404;28;20387;-81
2021/03/20 04:41:52;;;;;;;2.05;1.58;;;8.80;99.90;;;;;;5010352;28;20025;-78
2021/03/20 04:44:19;;;;;;;2.47;1.50;;;8.70;99.90;;;;;;5010143;28;20383;-78
2021/03/20 04:46:45;;;;;;;4.68;1.70;;;8.70;99.90;;;;;;5077921;28;20433;-76
2021/03/20 04:49:39;;;;;;;5.15;2.13;;;8.70;99.90;;;;;;5010099;28;20049;-77
2021/03/20 04:52:15;;;;;;;2.65;1.75;;;8.60;99.90;;;;;;5010350;28;20042;-78
2021/03/20 04:54:41;;;;;;;3.90;1.75;;;8.50;99.90;;;;;;5010101;28;20380;-77
2021/03/20 04:57:19;;;;;;;3.78;1.60;;;8.40;99.90;;;;;;5009969;28;20472;-76
2021/03/20 05:00:04;;;;;;;3.45;1.52;;;8.40;99.90;;;;;;5010006;28;20105;-82
2021/03/20 05:02:48;;;;;;;4.72;1.95;;;8.30;99.90;;;;;;5010145;28;20034;-81
2021/03/20 05:06:01;;;;;;;3.47;1.77;;;8.30;99.90;;;;;;5009917;28;20064;-77
2021/03/20 05:08:47;;;;;;;5.72;2.50;;;8.30;99.90;;;;;;5010714;28;20046;-78
2021/03/20 05:11:13;;;;;;;3.53;1.80;;;8.30;99.90;;;;;;5009670;28;20081;-76
2021/03/20 05:13:50;;;;;;;4.07;2.08;;;8.30;99.90;;;;;;5009998;28;20061;-76
2021/03/20 05:16:16;;;;;;;3.78;2.20;;;8.30;99.90;;;;;;5077420;28;20121;-79
2021/03/20 05:18:50;;;;;;;3.67;2.13;;;8.40;99.90;;;;;;5010001;28;20112;-80
2021/03/20 05:21:19;;;;;;;6.15;1.90;;;8.40;99.90;;;;;;5009851;28;20026;-80
2021/03/20 05:23:48;;;;;;;5.00;2.30;;;8.50;99.90;;;;;;5077259;28;20490;-81
2021/03/20 05:26:15;;;;;;;5.57;2.13;;;8.40;99.90;;;;;;5077290;28;20026;-78
2021/03/20 05:28:41;;;;;;;3.08;1.73;;;8.40;99.90;;;;;;5009693;28;20111;-80
2021/03/20 05:31:07;;;;;;;4.35;1.77;;;8.30;99.90;;;;;;5009613;28;20034;-81
2021/03/20 05:33:36;;;;;;;2.10;1.20;;;8.30;99.90;;;;;;5009534;28;20496;-79
2021/03/20 05:36:03;;;;;;;2.72;1.50;;;8.30;99.90;;;;;;5009468;28;20026;-82
2021/03/20 05:38:29;;;;;;;2.22;1.30;;;8.30;99.90;;;;;;5077216;28;20038;-77
2021/03/20 05:41:18;;;;;;;2.40;1.38;;;8.40;99.90;;;;;;5009461;28;20022;-79
2021/03/20 05:44:26;;;;;;;2.30;1.10;;;8.50;99.90;;;;;;5010411;28;20369;-76
2021/03/20 05:47:21;;;;;;;2.30;1.30;;;8.60;99.90;;;;;;5015631;28;20045;-81
2021/03/20 05:50:10;;;;;;;5.20;1.88;;;8.70;99.90;;;;;;5012951;28;20086;-81
2021/03/20 05:52:49;;;;;;;1.77;1.30;;;8.80;99.90;;;;;;5012796;28;20061;-76
2021/03/20 05:55:54;;;;;;;2.42;1.42;;;8.80;99.90;;;;;;5012603;28;20022;-80
2021/03/20 05:58:54;;;;;;;2.17;1.35;;;8.90;99.90;;;;;;5012690;28;20037;-79
2021/03/20 06:01:31;;;;;;;2.38;1.35;;;9.10;99.90;;;;;;5012672;28;20552;-77
2021/03/20 06:04:30;;;;;;;3.20;1.25;;;9.20;99.90;;;;;;5012568;28;20029;-78
2021/03/20 06:07:20;;;;;;;1.40;1.20;;;9.30;99.90;;;;;;5012611;28;20037;-77
2021/03/20 06:09:49;;;;;;;1.38;0.90;;;9.40;99.90;;;;;;5012490;28;20032;-80
2021/03/20 06:12:41;;;;;;;3.22;1.83;;;9.50;99.90;;;;;;5080244;28;20137;-78
2021/03/20 06:15:07;;;;;;;2.20;1.45;;;9.60;99.90;;;;;;5012388;28;20026;-76
2021/03/20 06:18:19;;;;;;;2.28;0.85;;;9.60;99.90;;;;;;5012514;28;20033;-77
2021/03/20 06:20:54;;;;;;;2.92;0.95;;;9.70;99.90;;;;;;5069798;28;20022;-80
2021/03/20 06:23:41;;;;;;;1.83;1.30;;;9.70;99.90;;;;;;5012329;28;20030;-81
2021/03/20 06:26:20;;;;;;;2.83;1.45;;;9.80;99.90;;;;;;5012255;28;20479;-78
2021/03/20 06:28:55;;;;;;;2.17;1.95;;;9.80;99.90;;;;;;5012139;28;20484;-78
2021/03/20 06:31:28;;;;;;;5.93;1.63;;;9.80;99.90;;;;;;5012017;28;20116;-82
2021/03/20 06:34:05;;;;;;;4.22;1.75;;;9.80;99.90;;;;;;5012142;28;20038;-78
2021/03/20 06:37:09;;;;;;;4.32;1.90;;;9.90;99.90;;;;;;5012047;28;20038;-79
2021/03/20 06:39:53;;;;;;;3.60;2.53;;;9.80;99.90;;;;;;5022383;28;20048;-79
2021/03/20 06:42:48;;;;;;;3.53;2.08;;;9.80;99.90;;;;;;5113902;27;20103;-81
2021/03/20 06:45:19;;;;;;;3.92;2.20;;;9.70;99.90;;;;;;5016220;28;20205;-81
2021/03/20 06:47:48;;;;;;;2.58;1.70;;;9.70;99.90;;;;;;5012016;28;20109;-80
2021/03/20 06:50:18;;;;;;;4.60;2.00;;;9.70;99.90;;;;;;5012087;28;20022;-79
2021/03/20 06:52:51;;;;;;;5.40;2.45;;;9.70;99.90;;;;;;5011847;28;20151;-77
2021/03/20 06:55:33;;;;;;;2.95;2.00;;;9.70;99.90;;;;;;5011699;28;20022;-77
2021/03/20 06:58:05;;;;;;;3.47;2.00;;;9.80;99.90;;;;;;5011984;28;20030;-77
2021/03/20 07:00:34;;;;;;;3.22;1.95;;;9.90;99.90;;;;;;5011890;28;20034;-77
2021/03/20 07:03:12;;;;;;;2.47;1.65;;;10.00;99.90;;;;;;5079895;28;20109;-82
2021/03/20 07:05:51;;;;;;;4.57;1.90;;;10.10;99.90;;;;;;5011815;28;20030;-79
2021/03/20 07:08:36;;;;;;;4.32;2.80;;;10.20;99.90;;;;;;5011397;28;20022;-82
2021/03/20 07:11:02;;;;;;;6.47;2.38;;;10.20;99.90;;;;;;5011193;28;20411;-78
2021/03/20 07:13:42;;;;;;;2.83;1.80;;;10.30;99.90;;;;;;5012435;28;20030;-78
2021/03/20 07:16:12;;;;;;;3.42;1.98;;;10.40;99.90;;;;;;5015424;28;20033;-82
2021/03/20 07:18:53;;;;;;;9.52;2.42;;;10.50;99.90;;;;;;5079341;28;20040;-81
2021/03/20 07:21:36;;;;;;;2.78;1.95;;;10.60;99.90;;;;;;5011267;28;20057;-77
2021/03/20 07:24:29;;;;;;;3.10;2.22;;;10.60;99.90;;;;;;5011580;28;20037;-79
2021/03/20 07:27:01;;;;;;;5.55;2.90;;;10.70;99.90;;;;;;5011195;28;20497;-79
2021/03/20 07:29:45;;;;;;;4.80;2.20;;;10.70;99.90;;;;;;5113261;27;20391;-77
2021/03/20 07:32:32;;;;;;;5.18;2.67;;;10.70;99.90;;;;;;5011096;28;20038;-78
2021/03/20 07:35:19;;;;;;;8.73;3.30;;;10.80;99.90;;;;;;5011211;28;20037;-77
2021/03/20 07:37:45;;;;;;;4.60;2.42;;;10.80;99.90;;;;;;5014299;28;20045;-78
2021/03/20 07:40:26;;;;;;;5.13;2.78;;;10.80;99.90;;;;;;5011256;28;20045;-77
2021/03/20 07:43:15;;;;;;;5.95;2.38;;;10.80;99.90;;;;;;5078939;28;20078;-81
2021/03/20 07:45:42;;;;;;;4.85;2.22;;;10.90;99.90;;;;;;5011155;28;20105;-77
2021/03/20 07:48:28;;;;;;;3.80;2.25;;;10.90;99.90;;;;;;5010849;28;20029;-77
2021/03/20 07:51:20;;;;;;;4.95;2.28;;;11.00;99.90;;;;;;5010963;28;20034;-79
2021/03/20 07:53:49;;;;;;;5.30;3.03;;;11.20;99.90;;;;;;5011801;28;20095;-80
2021/03/20 07:56:27;;;;;;;5.40;2.90;;;11.30;99.90;;;;;;5010993;28;20026;-78
2021/03/20 07:59:15;;;;;;;5.50;3.08;;;11.40;99.90;;;;;;5010750;28;20026;-80
2021/03/20 08:01:41;;;;;;;6.45;2.40;;;11.40;99.90;;;;;;5010932;28;20109;-78
2021/03/20 08:04:09;;;;;;;3.78;2.47;;;11.50;99.90;;;;;;5010818;28;20029;-79
2021/03/20 08:06:35;;;;;;;3.83;2.20;;;11.40;99.90;;;;;;5009921;28;20112;-78
2021/03/20 08:09:25;;;;;;;2.67;1.23;;;11.20;99.90;;;;;;5010758;28;20464;-79
2021/03/20 08:12:00;;;;;;;1.95;1.30;;;11.00;99.90;;;;;;5010577;28;20060;-77
2021/03/20 08:14:38;;;;;;;2.88;1.20;;;10.80;99.90;;;;;;5010589;28;20033;-77
2021/03/20 08:17:05;;;;;;;3.15;1.45;;;10.60;99.90;;;;;;5010453;28;20030;-76
2021/03/20 08:19:32;;;;;;;2.72;1.23;;;10.40;99.90;;;;;;5010626;28;20029;-80
2021/03/20 08:22:21;;;;;;;2.25;1.10;;;10.50;99.90;;;;;;5010449;28;20458;-77
2021/03/20 08:25:16;;;;;;;1.80;1.17;;;10.50;99.90;;;;;;5010385;28;20030;-80
2021/03/20 08:28:22;;;;;;;3.70;1.05;;;10.50;99.90;;;;;;5010397;28;20101;-80
2021/03/20 08:31:03;;;;;;;2.33;1.33;;;10.50;99.90;;;;;;5016819;28;20041;-77
2021/03/20 08:33:52;;;;;;;5.45;1.40;;;10.50;99.90;;;;;;5010598;28;20111;-83
2021/03/20 08:36:24;;;;;;;2.85;1.13;;;10.50;99.90;;;;;;5010119;28;20492;-77
2021/03/20 08:39:30;;;;;;;1.83;0.95;;;10.40;99.90;;;;;;5010233;28;20515;-79
2021/03/20 08:42:17;;;;;;;1.73;0.93;;;10.40;99.90;;;;;;5010049;28;20029;-78
2021/03/20 08:45:04;;;;;;;3.00;1.02;;;10.40;99.90;;;;;;5010043;28;20122;-78
2021/03/20 08:47:51;;;;;;;1.48;1.00;;;10.40;99.90;;;;;;5010049;28;20083;-78
2021/03/20 08:50:36;;;;;;;1.42;1.02;;;10.40;99.90;;;;;;5009990;28;20110;-77
2021/03/20 08:53:31;;;;;;;3.80;1.55;;;10.40;99.90;;;;;;5009868;28;20487;-79
2021/03/20 08:56:14;;;;;;;2.88;1.58;;;10.50;99.90;;;;;;5009904;28;20387;-78
2021/03/20 08:58:58;;;;;;;1.83;0.88;;;10.70;99.90;;;;;;5009997;28;20030;-80
2021/03/20 09:01:27;;;;;;;2.95;1.10;;;10.80;99.90;;;;;;5009932;28;20056;-80
2021/03/20 09:03:59;;;;;;;2.55;1.25;;;10.80;99.90;;;;;;5010135;28;20025;-80
2021/03/20 09:06:41;;;;;;;2.83;1.10;;;10.90;99.90;;;;;;5009862;28;20175;-80
2021/03/20 09:09:33;;;;;;;2.90;1.05;;;11.00;99.90;;;;;;5009986;28;20109;-81
2021/03/20 09:12:24;;;;;;;2.75;1.38;;;11.00;99.90;;;;;;5009562;28;20046;-79
2021/03/20 09:14:50;;;;;;;2.50;1.27;;;11.10;99.90;;;;;;5077802;28;20040;-80
2021/03/20 09:17:44;;;;;;;3.15;1.20;;;11.10;99.90;;;;;;5009888;28;20038;-80
2021/03/20 09:20:23;;;;;;;2.55;1.45;;;11.30;99.90;;;;;;5013175;28;20058;-79
2021/03/20 09:22:50;;;;;;;2.03;0.98;;;11.50;99.90;;;;;;5081660;28;20057;-83
2021/03/20 09:25:25;;;;;;;1.30;1.10;;;11.60;99.90;;;;;;5013134;28;20133;-77
2021/03/20 09:28:10;;;;;;;1.50;1.10;;;11.50;99.90;;;;;;5013097;28;20030;-78
2021/03/20 09:30:40;;;;;;;2.42;1.20;;;11.60;99.90;;;;;;5081236;28;20044;-77
2021/03/20 09:33:20;;;;;;;3.38;1.20;;;11.60;99.90;;;;;;5013054;28;20034;-78
2021/03/20 09:35:47;;;;;;;2.25;1.40;;;11.60;99.90;;;;;;5013020;28;20028;-77
2021/03/20 09:38:33;;;;;;;3.13;1.65;;;11.60;99.90;;;;;;5012964;28;20421;-81
2021/03/20 09:41:00;;;;;;;3.50;1.30;;;11.40;99.90;;;;;;5012998;28;20033;-79
2021/03/20 09:43:38;;;;;;;2.50;0.90;;;11.30;99.90;;;;;;5012865;28;20059;-82
2021/03/20 09:46:31;;;;;;;3.70;1.42;;;11.30;99.90;;;;;;5020187;28;20026;-77
2021/03/20 09:48:57;;;;;;;2.88;1.48;;;11.40;99.90;;;;;;5013047;28;20040;-80
2021/03/20 09:51:48;;;;;;;2.92;1.80;;;11.60;99.90;;;;;;5081017;28;20117;-77
2021/03/20 09:54:30;;;;;;;3.00;1.50;;;11.70;99.90;;;;;;5012855;28;20472;-82
2021/03/20 09:57:06;;;;;;;2.22;1.40;;;11.90;99.90;;;;;;5012623;28;20032;-77
2021/03/20 09:59:35;;;;;;;2.15;1.23;;;12.10;99.90;;;;;;5012692;28;20523;-79
2021/03/20 10:02:11;;;;;;;3.50;1.20;;;12.10;99.90;;;;;;5012841;28;20034;-80
2021/03/20 10:04:52;;;;;;;2.20;1.40;;;12.30;99.90;;;;;;5012817;28;20471;-83
2021/03/20 10:07:22;;;;;;;2.78;1.40;;;12.30;99.90;;;;;;5012553;28;20061;-80
2021/03/20 10:09:50;;;;;;;2.03;1.08;;;12.30;99.90;;;;;;5012670;28;20045;-81
2021/03/20 10:12:27;;;;;;;2.03;1.27;;;12.20;99.90;;;;;;5012084;28;20058;-80
2021/03/20 10:15:01;;;;;;;2.70;1.60;;;12.40;99.90;;;;;;5012451;28;20498;-76
2021/03/20 10:17:30;;;;;;;3.25;1.75;;;12.30;99.90;;;;;;5012375;28;20037;-77
2021/03/20 10:20:17;;;;;;;1.90;1.20;;;12.50;99.90;;;;;;5012294;28;20028;-77
2021/03/20 10:22:59;;;;;;;2.30;1.48;;;12.60;99.90;;;;;;5012736;28;20449;-78
2021/03/20 10:25:25;;;;;;;2.17;1.55;;;12.40;99.90;;;;;;5012157;28;20022;-79
2021/03/20 10:28:00;;;;;;;3.25;1.55;;;12.40;99.90;;;;;;5012228;28;20063;-79
2021/03/20 10:30:34;;;;;;;2.63;1.60;;;12.50;99.90;;;;;;5011310;28;20052;-81
2021/03/20 10:33:00;;;;;;;4.60;1.38;;;12.50;99.90;;;;;;5012098;28;20483;-82
2021/03/20 10:35:28;;;;;;;2.20;1.20;;;12.70;99.90;;;;;;5012175;28;20113;-76
2021/03/20 10:37:54;;;;;;;3.17;1.45;;;12.80;99.90;;;;;;5012399;28;20061;-78
2021/03/20 10:40:29;;;;;;;5.95;2.22;;;12.80;99.90;;;;;;5011906;28;20026;-82
2021/03/20 10:42:59;;;;;;;2.60;1.58;;;13.00;99.90;;;;;;5012175;28;20041;-81
2021/03/20 10:45:29;;;;;;;3.15;1.35;;;13.20;99.90;;;;;;5011967;28;20025;-80
2021/03/20 10:48:28;;;;;;;2.25;1.38;;;13.20;99.90;;;;;;5011994;28;20029;-79
2021/03/20 10:51:05;;;;;;;3.28;1.30;;;13.00;99.90;;;;;;5077412;28;20034;-81
2021/03/20 10:53:41;;;;;;;2.97;2.05;;;13.00;99.90;;;;;;5011911;28;20049;-80
2021/03/20 10:56:32;;;;;;;4.20;1.77;;;13.20;99.90;;;;;;5011678;28;20087;-80
2021/03/20 10:59:12;;;;;;;4.10;1.63;;;13.00;99.90;;;;;;5012117;28;20364;-81
2021/03/20 11:01:38;;;;;;;2.70;1.75;;;13.10;99.90;;;;;;5014001;28;20056;-77
2021/03/20 11:04:04;;;;;;;4.90;2.05;;;13.40;99.90;;;;;;5014496;28;20383;-78
2021/03/20 11:06:31;;;;;;;3.80;1.40;;;13.30;99.90;;;;;;5011697;28;20045;-80
2021/03/20 11:09:21;;;;;;;2.83;1.48;;;13.40;99.90;;;;;;5011697;28;20034;-79
2021/03/20 11:11:49;;;;;;;4.60;1.30;;;13.40;99.90;;;;;;5011317;28;20072;-77
2021/03/20 11:14:19;;;;;;;3.17;1.90;;;13.40;99.90;;;;;;5011372;28;20075;-77
2021/03/20 11:16:49;;;;;;;3.25;1.65;;;13.60;99.90;;;;;;5011612;28;20117;-77
2021/03/20 11:19:19;;;;;;;3.03;1.45;;;13.70;99.90;;;;;;5079313;28;20548;-83
2021/03/20 11:21:48;;;;;;;5.28;2.33;;;13.60;99.90;;;;;;5011549;28;20121;-77
2021/03/20 11:24:35;;;;;;;3.13;2.00;;;14.10;99.90;;;;;;5011414;28;20029;-77
2021/03/20 11:27:17;;;;;;;2.50;1.58;;;14.70;99.90;;;;;;5079116;28;20041;-78
2021/03/20 11:29:45;;;;;;;2.50;1.38;;;15.10;99.90;;;;;;5011481;28;20053;-80
2021/03/20 11:32:31;;;;;;;5.70;1.60;;;15.40;99.80;;;;;;5011244;28;20068;-77
2021/03/20 11:35:13;;;;;;;2.58;1.70;;;15.90;99.70;;;;;;5079043;28;20030;-80
2021/03/20 11:37:39;;;;;;;1.83;1.63;;;16.50;99.00;;;;;;5011190;28;20480;-79
2021/03/20 11:40:21;;;;;;;1.80;1.33;;;16.90;98.20;;;;;;5011178;28;20026;-80
2021/03/20 11:42:55;;;;;;;5.30;1.48;;;16.40;97.90;;;;;;5010347;28;20030;-79
2021/03/20 11:45:27;;;;;;;4.00;1.92;;;15.50;97.80;;;;;;5078678;28;20124;-79
2021/03/20 11:47:56;;;;;;;1.95;1.30;;;15.10;99.10;;;;;;5011166;28;20042;-82
2021/03/20 11:50:33;;;;;;;2.00;1.30;;;14.80;99.70;;;;;;5011003;28;20491;-77
2021/03/20 11:53:24;;;;;;;2.80;1.55;;;14.80;99.70;;;;;;5011043;28;20488;-82
2021/03/20 11:55:52;;;;;;;2.72;1.38;;;15.00;99.90;;;;;;5011128;28;20033;-77
2021/03/20 11:58:29;;;;;;;4.90;2.78;;;15.00;99.70;;;;;;5010934;28;20069;-81
2021/03/20 12:00:56;;;;;;;3.60;1.50;;;15.30;99.40;;;;;;5010925;28;20482;-78
2021/03/20 12:03:22;;;;;;;6.22;1.92;;;15.60;99.20;;;;;;5010661;28;20034;-81
2021/03/20 12:05:51;;;;;;;5.38;1.98;;;16.00;98.80;;;;;;5010973;28;20483;-81
2021/03/20 12:08:42;;;;;;;3.95;1.30;;;16.50;98.30;;;;;;5010575;28;20029;-77
2021/03/20 12:11:13;;;;;;;6.63;1.27;;;16.60;97.10;;;;;;5010615;28;20042;-77
2021/03/20 12:13:44;;;;;;;5.75;2.10;;;16.20;97.90;;;;;;5010823;28;20479;-77
2021/03/20 12:16:37;;;;;;;2.05;1.35;;;16.20;97.80;;;;;;5010921;28;20018;-77
2021/03/20 12:19:08;;;;;;;2.55;2.10;;;15.90;97.50;;;;;;5016201;28;20116;-77
2021/03/20 12:21:52;;;;;;;1.85;1.40;;;15.20;98.00;;;;;;5010371;28;20395;-77
2021/03/20 12:24:48;;;;;;;2.58;1.95;;;15.20;98.40;;;;;;5078013;28;20034;-80
2021/03/20 12:27:41;;;;;;;2.15;1.40;;;15.20;98.80;;;;;;5014593;28;20034;-78
2021/03/20 12:30:30;;;;;;;5.00;2.00;;;15.20;98.90;;;;;;5011238;28;20560;-79
2021/03/20 12:33:11;;;;;;;3.50;1.88;;;15.00;99.00;;;;;;5010321;28;20081;-79
2021/03/20 12:35:46;;;;;;;2.67;1.60;;;14.90;99.10;;;;;;5010520;28;20163;-78
2021/03/20 12:38:25;;;;;;;5.70;2.15;;;14.70;99.50;;;;;;5078015;28;20117;-77
2021/03/20 12:40:55;;;;;;;3.33;1.90;;;14.50;99.80;;;;;;5010340;28;20033;-77
2021/03/20 12:43:33;;;;;;;3.80;1.50;;;14.30;99.90;;;;;;5010228;28;20086;-78
2021/03/20 12:46:02;;;;;;;3.22;1.98;;;14.20;99.90;;;;;;5010219;28;20030;-78
2021/03/20 12:48:28;;;;;;;5.60;2.40;;;14.10;99.90;;;;;;5077951;28;20014;-79
2021/03/20 12:50:57;;;;;;;4.25;2.35;;;14.00;99.90;;;;;;5010212;28;20044;-78
2021/03/20 12:53:23;;;;;;;3.10;1.58;;;13.70;99.90;;;;;;5009765;28;20036;-77
2021/03/20 12:55:49;;;;;;;3.13;1.60;;;13.30;99.90;;;;;;5010077;28;20392;-77
2021/03/20 12:58:15;;;;;;;5.43;2.08;;;13.40;99.90;;;;;;5009911;28;20467;-77
2021/03/20 13:00:41;;;;;;;3.20;1.40;;;13.40;99.90;;;;;;5077461;28;20022;-77
2021/03/20 13:03:07;;;;;;;2.83;1.88;;;13.30;99.90;;;;;;5009938;28;20669;-80
2021/03/20 13:05:35;;;;;;;2.58;2.05;;;13.40;99.90;;;;;;5009854;28;20033;-81
2021/03/20 13:08:02;;;;;;;3.20;1.40;;;13.60;99.90;;;;;;5077510;28;20079;-78
2021/03/20 13:10:28;;;;;;;3.60;2.10;;;13.80;99.90;;;;;;5009471;28;20083;-77
2021/03/20 13:12:54;;;;;;;3.35;2.03;;;13.70;99.90;;;;;;5060645;28;20050;-80
2021/03/20 13:15:22;;;;;;;5.25;2.25;;;13.60;99.90;;;;;;5009636;28;20426;-78
2021/03/20 13:17:49;;;;;;;3.30;1.77;;;13.80;99.90;;;;;;5009780;28;20085;-80
2021/03/20 13:20:17;;;;;;;3.97;2.03;;;13.70;99.90;;;;;;5009866;28;20054;-80
2021/03/20 13:22:43;;;;;;;4.07;2.30;;;13.60;99.90;;;;;;5077579;28;20086;-81
2021/03/20 13:25:15;;;;;;;3.58;1.42;;;13.50;99.90;;;;;;5009644;28;20485;-77
2021/03/20 13:27:41;;;;;;;5.28;2.25;;;13.40;99.90;;;;;;5077218;28;20034;-79
2021/03/20 13:30:07;;;;;;;3.03;2.15;;;13.40;99.90;;;;;;5077302;28;20033;-78
2021/03/20 13:32:33;;;;;;;5.28;2.83;;;13.50;99.90;;;;;;5009631;28;20498;-76
2021/03/20 13:35:00;;;;;;;4.60;2.83;;;13.60;99.90;;;;;;5011659;28;20022;-81
2021/03/20 13:37:26;;;;;;;5.30;2.63;;;13.80;99.90;;;;;;5009576;28;20037;-76
2021/03/20 13:39:52;;;;;;;3.97;2.00;;;13.90;99.90;;;;;;5009536;28;20026;-76